Terminal Aerodrome Forecast
Issued by NWS State College, PA

Home | Current Version | Previous Version | Text Only | Print | Product List | Glossary On
Versions: 1 2 3 4 5 6 7 8 9 10 11 12 13 14 15 16 17 18 19 20 21 22 23 24 25 26 27 28 29 30 31 32 33 34 35 36 37 38 39
000
FTUS41 KCTP 241941 AAB
TAFIPT
TAF AMD
KIPT 241941Z 2420/2518 26005KT 3SM -RA BR SCT005 OVC080
     FM250100 VRB03KT 5SM BR OVC015
     FM250700 10013G19KT 3SM -RA BR OVC007
     FM251200 09008G15KT 4SM -RA BR OVC003
     FM251600 09006KT 6SM -RA BR OVC007=

USA.gov is the U.S. government's official web portal to all federal, state and local government web resources and services.